createdAt,value
2018-03-27T00:00:16.719Z,38.35
2018-03-27T00:01:20.040Z,37.97
2018-03-27T00:02:23.394Z,35.78
2018-03-27T00:03:26.733Z,36.22
2018-03-27T00:04:30.069Z,37.55
2018-03-27T00:05:33.402Z,35.65
2018-03-27T00:06:36.701Z,37.38
2018-03-27T00:07:40.093Z,35.50
2018-03-27T00:08:43.400Z,36.63
2018-03-27T00:09:46.791Z,38.47
2018-03-27T00:10:50.088Z,35.67
2018-03-27T00:11:53.499Z,37.17
2018-03-27T00:12:56.827Z,36.67
2018-03-27T00:14:00.144Z,36.17
2018-03-27T00:15:03.503Z,36.17
2018-03-27T00:16:06.905Z,35.58
2018-03-27T00:17:10.203Z,35.30
2018-03-27T00:18:13.560Z,35.00
2018-03-27T00:19:16.900Z,34.65
2018-03-27T00:20:20.212Z,33.35
2018-03-27T00:21:23.558Z,34.63
2018-03-27T00:22:26.870Z,33.63
2018-03-27T00:23:30.212Z,35.47
2018-03-27T00:24:42.383Z,35.03
2018-03-27T00:25:45.751Z,34.10
2018-03-27T00:27:00.535Z,34.63
2018-03-27T00:28:16.799Z,36.25
2018-03-27T00:29:31.839Z,32.97
2018-03-27T00:30:46.877Z,35.42
2018-03-27T00:32:01.925Z,33.92
2018-03-27T00:33:17.068Z,32.88
2018-03-27T00:34:32.048Z,32.67
2018-03-27T00:35:47.118Z,33.58
2018-03-27T00:37:02.153Z,31.50
2018-03-27T00:38:17.238Z,33.00
2018-03-27T00:39:32.489Z,31.73
2018-03-27T00:40:43.373Z,33.08
2018-03-27T00:43:33.702Z,31.10
2018-03-27T00:44:37.033Z,30.52
2018-03-27T00:45:40.349Z,31.40
2018-03-27T00:46:43.690Z,32.88
2018-03-27T00:47:47.044Z,31.02
2018-03-27T00:48:50.356Z,31.65
2018-03-27T00:49:53.767Z,32.20
2018-03-27T00:50:57.082Z,33.78
2018-03-27T00:52:00.570Z,32.95
2018-03-27T00:53:03.860Z,31.35
2018-03-27T00:54:07.187Z,31.20
2018-03-27T00:55:10.604Z,32.78
2018-03-27T00:56:13.917Z,33.55
2018-03-27T00:57:17.260Z,32.10
2018-03-27T00:58:20.549Z,30.20
2018-03-27T00:59:23.883Z,31.60
2018-03-27T01:00:27.961Z,32.45
2018-03-27T01:01:31.348Z,32.50
2018-03-27T01:02:34.697Z,30.52
2018-03-27T01:03:38.116Z,29.42
2018-03-27T01:04:41.408Z,32.38
2018-03-27T01:05:44.737Z,30.77
2018-03-27T01:06:48.085Z,33.70
2018-03-27T01:07:51.484Z,31.65
2018-03-27T01:08:54.783Z,32.20
2018-03-27T01:09:58.106Z,32.50
2018-03-27T01:11:01.459Z,29.80
2018-03-27T01:12:04.804Z,32.40
2018-03-27T01:13:08.139Z,31.98
2018-03-27T01:14:11.464Z,32.10
2018-03-27T01:15:14.846Z,29.42
2018-03-27T01:16:18.159Z,29.75
2018-03-27T01:17:21.470Z,30.90
2018-03-27T01:18:24.810Z,32.10
2018-03-27T01:19:28.131Z,31.23
2018-03-27T01:20:31.470Z,31.23
2018-03-27T01:21:34.822Z,31.17
2018-03-27T01:22:38.144Z,32.67
2018-03-27T01:23:41.465Z,30.42
2018-03-27T01:24:44.780Z,33.63
2018-03-27T01:25:48.204Z,31.58
2018-03-27T01:26:51.540Z,31.67
2018-03-27T01:27:55.688Z,32.67
2018-03-27T01:28:59.197Z,31.80
2018-03-27T01:30:02.508Z,34.50
2018-03-27T01:31:06.651Z,31.92
2018-03-27T01:32:09.993Z,30.05
2018-03-27T01:33:13.291Z,32.38
2018-03-27T01:34:16.629Z,30.48
2018-03-27T01:35:20.017Z,33.38
2018-03-27T01:36:23.318Z,31.05
2018-03-27T01:37:26.682Z,30.85
2018-03-27T01:38:30.009Z,34.28
2018-03-27T01:39:33.344Z,31.70
2018-03-27T01:40:36.653Z,32.95
2018-03-27T01:41:40.010Z,33.70
2018-03-27T01:42:43.403Z,32.10
2018-03-27T01:43:46.727Z,33.67
2018-03-27T01:44:50.082Z,31.98
2018-03-27T01:45:53.430Z,32.92
2018-03-27T01:46:56.742Z,33.05
2018-03-27T01:48:00.086Z,32.65
2018-03-27T01:49:03.683Z,33.30
2018-03-27T01:50:07.004Z,32.47
2018-03-27T01:51:10.385Z,33.60
2018-03-27T01:52:13.771Z,35.17
2018-03-27T01:53:17.115Z,32.00
2018-03-27T01:54:20.448Z,30.88
2018-03-27T01:55:23.937Z,32.30
2018-03-27T01:56:27.245Z,32.97
2018-03-27T01:57:30.595Z,31.20
2018-03-27T01:58:33.924Z,31.77
2018-03-27T01:59:37.237Z,32.42
2018-03-27T02:00:40.552Z,31.62
2018-03-27T02:01:43.899Z,33.63
2018-03-27T02:02:47.201Z,30.77
2018-03-27T02:03:50.541Z,32.42
2018-03-27T02:04:53.835Z,31.95
2018-03-27T02:05:57.163Z,31.02
2018-03-27T02:07:00.480Z,31.20
2018-03-27T02:08:03.819Z,30.65
2018-03-27T02:09:07.155Z,31.92
2018-03-27T02:10:10.500Z,30.80
2018-03-27T02:11:19.293Z,29.92
2018-03-27T02:12:28.343Z,29.87
2018-03-27T02:13:37.365Z,29.08
2018-03-27T02:14:46.411Z,30.62
2018-03-27T02:15:55.428Z,31.83
2018-03-27T02:17:04.501Z,32.03
2018-03-27T02:18:13.419Z,30.85
2018-03-27T02:19:22.429Z,30.77
2018-03-27T02:20:31.414Z,29.50
2018-03-27T02:21:34.162Z,32.13
2018-03-27T02:22:39.947Z,32.53
2018-03-27T02:23:44.200Z,30.52
2018-03-27T02:24:48.244Z,34.05
2018-03-27T02:25:51.618Z,33.10
2018-03-27T02:26:54.962Z,32.53
2018-03-27T02:27:58.273Z,33.35
2018-03-27T02:29:02.432Z,32.10
2018-03-27T02:30:06.115Z,32.30
2018-03-27T02:31:09.438Z,35.45
2018-03-27T02:32:13.442Z,32.78
2018-03-27T02:33:16.748Z,31.87
2018-03-27T02:34:20.079Z,33.63
2018-03-27T02:35:23.459Z,34.08
2018-03-27T02:36:26.822Z,32.08
2018-03-27T02:37:30.192Z,32.03
2018-03-27T02:38:33.495Z,30.35
2018-03-27T02:39:36.830Z,30.90
2018-03-27T02:40:40.135Z,31.80
2018-03-27T02:41:43.521Z,33.35
2018-03-27T02:42:46.886Z,31.17
2018-03-27T02:43:50.195Z,32.33
2018-03-27T02:44:53.537Z,32.22
2018-03-27T02:45:56.887Z,29.35
2018-03-27T02:47:00.221Z,32.28
2018-03-27T02:48:03.546Z,32.60
2018-03-27T02:49:06.853Z,31.05
2018-03-27T02:50:10.537Z,30.15
2018-03-27T02:51:13.891Z,30.80
2018-03-27T02:52:17.298Z,31.65
2018-03-27T02:53:20.614Z,32.53
2018-03-27T02:54:23.947Z,32.33
2018-03-27T02:55:27.256Z,32.70
2018-03-27T02:56:30.931Z,32.10
2018-03-27T02:57:34.252Z,30.45
2018-03-27T02:58:37.576Z,32.55
2018-03-27T02:59:40.899Z,31.12
2018-03-27T03:00:44.258Z,32.60
2018-03-27T03:01:47.585Z,33.10
2018-03-27T03:02:50.950Z,33.17
2018-03-27T03:03:54.338Z,33.75
2018-03-27T03:04:57.656Z,33.72
2018-03-27T03:06:00.954Z,33.70
2018-03-27T03:07:04.290Z,33.70
2018-03-27T03:08:07.694Z,33.97
2018-03-27T03:09:11.023Z,30.55
2018-03-27T03:10:14.324Z,31.42
2018-03-27T03:11:17.700Z,31.90
2018-03-27T03:12:21.918Z,33.40
2018-03-27T03:13:25.279Z,31.80
2018-03-27T03:14:28.580Z,31.48
2018-03-27T03:15:31.894Z,32.90
2018-03-27T03:16:35.256Z,33.95
2018-03-27T03:17:38.642Z,31.45
2018-03-27T03:18:42.016Z,31.80
2018-03-27T03:19:45.432Z,32.80
2018-03-27T03:20:48.736Z,33.25
2018-03-27T03:21:52.112Z,33.30
2018-03-27T03:22:55.351Z,33.55
2018-03-27T03:23:58.719Z,33.67
2018-03-27T03:25:02.043Z,30.92
2018-03-27T03:26:05.442Z,34.17
2018-03-27T03:27:08.724Z,32.95
2018-03-27T03:28:12.046Z,32.72
2018-03-27T03:29:17.299Z,34.10
2018-03-27T03:30:20.626Z,32.78
2018-03-27T03:31:23.956Z,34.10
2018-03-27T03:32:27.247Z,33.60
2018-03-27T03:33:30.576Z,33.13
2018-03-27T03:34:33.927Z,32.83
2018-03-27T03:35:37.261Z,35.30
2018-03-27T03:36:40.572Z,35.92
2018-03-27T03:37:43.880Z,32.38
2018-03-27T03:38:47.191Z,32.85
2018-03-27T03:39:50.539Z,32.28
2018-03-27T03:40:53.844Z,32.20
2018-03-27T03:41:57.160Z,35.35
2018-03-27T03:43:00.500Z,32.70
2018-03-27T03:44:03.844Z,34.35
2018-03-27T03:45:07.468Z,33.35
2018-03-27T03:46:10.821Z,34.58
2018-03-27T03:47:14.142Z,33.50
2018-03-27T03:48:17.456Z,34.90
2018-03-27T03:49:20.761Z,34.85
2018-03-27T03:50:24.099Z,34.13
2018-03-27T03:51:27.436Z,35.38
2018-03-27T03:52:30.792Z,34.60
2018-03-27T03:53:34.100Z,32.28
2018-03-27T03:54:37.415Z,34.40
2018-03-27T03:55:40.744Z,34.92
2018-03-27T03:56:44.064Z,35.08
2018-03-27T03:57:47.392Z,34.22
2018-03-27T03:58:50.753Z,33.35
2018-03-27T03:59:54.112Z,33.83
2018-03-27T04:00:57.490Z,34.60
2018-03-27T04:02:00.794Z,34.47
2018-03-27T04:03:04.136Z,36.38
2018-03-27T04:04:07.422Z,36.00
2018-03-27T04:05:10.729Z,35.15
2018-03-27T04:06:14.087Z,35.50
2018-03-27T04:07:17.383Z,33.42
2018-03-27T04:08:20.704Z,34.95
2018-03-27T04:09:24.017Z,32.40
2018-03-27T04:10:27.353Z,32.70
2018-03-27T04:11:30.725Z,35.83
2018-03-27T04:12:34.032Z,32.55
2018-03-27T04:13:37.361Z,34.25
2018-03-27T04:14:41.180Z,34.35
2018-03-27T04:15:44.503Z,34.58
2018-03-27T04:16:47.844Z,35.80
2018-03-27T04:17:51.219Z,34.80
2018-03-27T04:18:54.537Z,36.28
2018-03-27T04:19:57.909Z,34.42
2018-03-27T04:21:02.148Z,35.17
2018-03-27T04:22:05.486Z,34.53
2018-03-27T04:23:08.795Z,33.25
2018-03-27T04:24:12.123Z,35.63
2018-03-27T04:25:15.464Z,34.13
2018-03-27T04:26:18.811Z,32.72
2018-03-27T04:27:22.161Z,33.53
2018-03-27T04:28:25.478Z,32.75
2018-03-27T04:29:30.503Z,34.70
2018-03-27T04:30:33.830Z,34.60
2018-03-27T04:31:37.141Z,35.53
2018-03-27T04:32:40.499Z,35.80
2018-03-27T04:33:43.795Z,34.63
2018-03-27T04:34:47.095Z,34.70
2018-03-27T04:35:50.800Z,37.22
2018-03-27T04:36:54.134Z,36.88
2018-03-27T04:37:57.521Z,34.40
2018-03-27T04:39:00.870Z,33.92
2018-03-27T04:40:04.199Z,35.78
2018-03-27T04:41:07.524Z,34.75
2018-03-27T04:42:10.853Z,34.63
2018-03-27T04:43:14.184Z,37.05
2018-03-27T04:44:18.112Z,34.80
2018-03-27T04:45:21.459Z,37.35
2018-03-27T04:46:24.814Z,34.80
2018-03-27T04:47:28.099Z,35.88
2018-03-27T04:48:31.439Z,35.42
2018-03-27T04:49:34.758Z,36.60
2018-03-27T04:50:38.093Z,35.83
2018-03-27T04:51:41.431Z,37.70
2018-03-27T04:52:44.760Z,36.85
2018-03-27T04:53:48.140Z,38.75
2018-03-27T04:54:51.526Z,37.05
2018-03-27T04:55:54.860Z,35.35
2018-03-27T04:56:58.194Z,38.90
2018-03-27T04:58:01.632Z,37.45
2018-03-27T04:59:05.010Z,38.78
2018-03-27T05:00:08.395Z,36.65
2018-03-27T05:01:11.759Z,36.40
2018-03-27T05:02:15.091Z,38.10
2018-03-27T05:03:18.498Z,38.25
2018-03-27T05:04:21.845Z,37.42
2018-03-27T05:05:25.164Z,37.75
2018-03-27T05:06:28.584Z,37.45
2018-03-27T05:07:31.955Z,36.15
2018-03-27T05:08:36.056Z,38.70
2018-03-27T05:09:41.449Z,37.75
2018-03-27T05:10:44.744Z,36.03
2018-03-27T05:11:48.068Z,36.83
2018-03-27T05:12:51.400Z,37.78
2018-03-27T05:13:54.725Z,39.38
2018-03-27T05:14:58.095Z,37.80
2018-03-27T05:16:01.439Z,37.65
2018-03-27T05:17:04.796Z,37.30
2018-03-27T05:18:08.126Z,38.78
2018-03-27T05:19:11.425Z,38.67
2018-03-27T05:20:14.792Z,36.45
2018-03-27T05:21:18.203Z,38.00
2018-03-27T05:22:21.490Z,34.45
2018-03-27T05:23:24.815Z,35.65
2018-03-27T05:24:28.113Z,35.17
2018-03-27T05:25:31.455Z,39.58
2018-03-27T05:26:34.821Z,36.40
2018-03-27T05:27:38.140Z,38.13
2018-03-27T05:28:41.490Z,38.30
2018-03-27T05:29:46.056Z,40.55
2018-03-27T05:30:49.550Z,37.92
2018-03-27T05:31:52.847Z,37.20
2018-03-27T05:32:56.170Z,36.83
2018-03-27T05:33:59.570Z,37.03
2018-03-27T05:35:02.965Z,39.85
2018-03-27T05:36:06.292Z,38.45
2018-03-27T05:37:09.714Z,37.47
2018-03-27T05:38:13.041Z,38.80
2018-03-27T05:39:16.367Z,37.70
2018-03-27T05:40:20.031Z,36.28
2018-03-27T05:41:23.372Z,36.42
2018-03-27T05:42:26.710Z,38.58
2018-03-27T05:43:30.024Z,38.60
2018-03-27T05:44:33.411Z,40.08
2018-03-27T05:45:36.717Z,38.72
2018-03-27T05:46:40.096Z,36.65
2018-03-27T05:47:43.380Z,37.90
2018-03-27T05:48:46.709Z,39.53
2018-03-27T05:49:50.072Z,35.53
2018-03-27T05:50:53.443Z,36.40
2018-03-27T05:51:56.787Z,38.78
2018-03-27T05:53:00.117Z,36.92
2018-03-27T05:54:03.488Z,36.95
2018-03-27T05:55:06.884Z,37.33
2018-03-27T05:56:10.231Z,35.83
2018-03-27T05:57:13.680Z,36.80
2018-03-27T05:58:17.041Z,36.50
2018-03-27T05:59:20.360Z,35.15
2018-03-27T06:00:23.667Z,36.65
2018-03-27T06:01:27.048Z,35.35
2018-03-27T06:02:30.372Z,33.88
2018-03-27T06:03:33.692Z,33.92
2018-03-27T06:04:37.794Z,34.00
2018-03-27T06:05:41.120Z,31.85
2018-03-27T06:06:44.496Z,35.25
2018-03-27T06:07:47.890Z,33.72
2018-03-27T06:08:51.294Z,31.70
2018-03-27T06:09:54.600Z,31.60
2018-03-27T06:10:57.976Z,34.80
2018-03-27T06:12:01.997Z,39.83
2018-03-27T06:13:05.362Z,33.78
2018-03-27T06:14:08.714Z,30.90
2018-03-27T06:15:12.136Z,33.58
2018-03-27T06:16:15.507Z,32.58
2018-03-27T06:17:18.841Z,30.98
2018-03-27T06:18:22.173Z,32.25
2018-03-27T06:19:25.499Z,32.28
2018-03-27T06:20:28.883Z,32.05
2018-03-27T06:21:32.228Z,32.05
2018-03-27T06:22:35.561Z,31.42
2018-03-27T06:23:38.985Z,32.42
2018-03-27T06:24:42.328Z,31.30
2018-03-27T06:25:45.692Z,31.80
2018-03-27T06:26:49.036Z,30.00
2018-03-27T06:27:52.372Z,29.90
2018-03-27T06:28:55.699Z,29.75
2018-03-27T06:29:59.961Z,32.42
2018-03-27T06:31:03.275Z,30.35
2018-03-27T06:32:06.714Z,32.75
2018-03-27T06:33:10.036Z,31.25
2018-03-27T06:34:13.508Z,29.98
2018-03-27T06:35:16.853Z,29.55
2018-03-27T06:36:20.260Z,31.62
2018-03-27T06:37:23.567Z,29.20
2018-03-27T06:38:26.888Z,32.35
2018-03-27T06:39:30.324Z,29.55
2018-03-27T06:40:33.636Z,31.00
2018-03-27T06:41:37.026Z,30.05
2018-03-27T06:42:40.384Z,30.23
2018-03-27T06:43:43.696Z,29.90
2018-03-27T06:44:47.050Z,30.62
2018-03-27T06:45:51.321Z,31.60
2018-03-27T06:46:54.647Z,30.70
2018-03-27T06:47:57.986Z,31.50
2018-03-27T06:49:01.364Z,31.42
2018-03-27T06:50:04.727Z,29.45
2018-03-27T06:51:08.059Z,33.22
2018-03-27T06:52:11.431Z,31.25
2018-03-27T06:53:14.744Z,29.55
2018-03-27T06:54:18.126Z,30.37
2018-03-27T06:55:21.546Z,30.98
2018-03-27T06:56:24.936Z,29.40
2018-03-27T06:57:28.255Z,32.95
2018-03-27T06:58:31.598Z,30.23
2018-03-27T06:59:34.920Z,29.00
2018-03-27T07:00:38.293Z,29.02
2018-03-27T07:01:41.602Z,31.70
2018-03-27T07:02:44.953Z,30.17
2018-03-27T07:03:49.022Z,29.75
2018-03-27T07:04:56.016Z,30.75
2018-03-27T07:05:59.431Z,29.77
2018-03-27T07:07:02.739Z,30.35
2018-03-27T07:08:06.055Z,31.45
2018-03-27T07:09:09.403Z,30.65
2018-03-27T07:10:12.718Z,30.48
2018-03-27T07:11:16.122Z,30.70
2018-03-27T07:12:19.412Z,30.92
2018-03-27T07:13:22.747Z,30.58
2018-03-27T07:14:26.080Z,33.28
2018-03-27T07:15:29.481Z,32.22
2018-03-27T07:16:32.867Z,33.40
2018-03-27T07:17:36.348Z,33.22
2018-03-27T07:18:39.866Z,31.35
2018-03-27T07:19:43.596Z,31.90
2018-03-27T07:20:46.941Z,32.95
2018-03-27T07:21:50.281Z,33.63
2018-03-27T07:22:53.736Z,33.10
2018-03-27T07:23:57.101Z,34.38
2018-03-27T07:25:00.411Z,30.35
2018-03-27T07:26:03.785Z,32.65
2018-03-27T07:27:07.137Z,33.05
2018-03-27T07:28:10.568Z,32.72
2018-03-27T07:29:13.926Z,31.75
2018-03-27T07:30:17.484Z,30.70
2018-03-27T07:31:20.754Z,33.97
2018-03-27T07:32:24.306Z,32.55
2018-03-27T07:33:27.576Z,32.40
2018-03-27T07:34:31.064Z,32.50
2018-03-27T07:35:34.406Z,33.63
2018-03-27T07:36:37.798Z,32.65
2018-03-27T07:37:41.158Z,32.05
2018-03-27T07:38:44.520Z,32.17
2018-03-27T07:39:47.828Z,29.55
2018-03-27T07:40:51.821Z,32.55
2018-03-27T07:41:57.205Z,30.67
2018-03-27T07:43:00.585Z,32.35
2018-03-27T07:44:03.903Z,32.47
2018-03-27T07:45:07.262Z,31.50
2018-03-27T07:46:10.571Z,32.58
2018-03-27T07:47:13.886Z,30.80
2018-03-27T07:48:17.260Z,31.92
2018-03-27T07:49:20.576Z,31.83
2018-03-27T07:50:23.965Z,32.50
2018-03-27T07:51:27.333Z,30.85
2018-03-27T07:52:30.720Z,30.05
2018-03-27T07:53:34.107Z,31.27
2018-03-27T07:54:37.836Z,30.90
2018-03-27T07:55:41.137Z,29.95
2018-03-27T07:56:44.525Z,31.45
2018-03-27T07:57:47.806Z,31.55
2018-03-27T07:58:51.248Z,31.62
2018-03-27T07:59:54.579Z,29.02
2018-03-27T08:00:57.890Z,29.42
2018-03-27T08:02:00.503Z,28.65
2018-03-27T08:03:03.686Z,28.73
2018-03-27T08:04:07.023Z,27.15
2018-03-27T08:05:10.355Z,30.37
2018-03-27T08:06:13.707Z,29.48
2018-03-27T08:07:17.095Z,29.45
2018-03-27T08:08:20.444Z,28.83
2018-03-27T08:09:23.780Z,31.23
2018-03-27T08:10:27.097Z,30.20
2018-03-27T08:11:30.448Z,29.17
2018-03-27T08:12:33.749Z,29.77
2018-03-27T08:13:37.123Z,28.80
2018-03-27T08:14:40.482Z,29.95
2018-03-27T08:15:43.892Z,29.35
2018-03-27T08:16:47.233Z,30.15
2018-03-27T08:17:51.461Z,27.90
2018-03-27T08:18:54.860Z,26.45
2018-03-27T08:19:58.235Z,27.70
2018-03-27T08:21:01.560Z,28.08
2018-03-27T08:22:04.931Z,30.80
2018-03-27T08:23:08.327Z,28.27
2018-03-27T08:24:12.514Z,27.60
2018-03-27T08:25:16.434Z,28.45
2018-03-27T08:26:19.763Z,26.10
2018-03-27T08:27:23.398Z,26.87
2018-03-27T08:28:26.728Z,28.15
2018-03-27T08:29:30.088Z,26.27
2018-03-27T08:30:35.292Z,26.52
2018-03-27T08:31:38.683Z,25.23
2018-03-27T08:32:42.030Z,25.83
2018-03-27T08:33:45.401Z,25.23
2018-03-27T08:34:48.873Z,25.17
2018-03-27T08:35:53.092Z,25.30
2018-03-27T08:36:56.503Z,25.12
2018-03-27T08:37:59.858Z,24.50
2018-03-27T08:39:03.165Z,27.08
2018-03-27T08:40:06.520Z,24.65
2018-03-27T08:41:09.888Z,23.65
2018-03-27T08:42:13.192Z,24.95
2018-03-27T08:43:16.567Z,25.85
2018-03-27T08:44:19.930Z,24.50
2018-03-27T08:45:23.279Z,25.02
2018-03-27T08:46:26.615Z,24.95
2018-03-27T08:47:29.977Z,24.08
2018-03-27T08:48:33.353Z,23.90
2018-03-27T08:49:36.641Z,23.83
2018-03-27T08:50:40.012Z,24.92
2018-03-27T08:51:43.364Z,25.05
2018-03-27T08:52:46.798Z,24.73
2018-03-27T08:53:50.136Z,25.02
2018-03-27T08:54:53.494Z,24.23
2018-03-27T08:55:57.729Z,25.17
2018-03-27T08:57:01.215Z,23.17
2018-03-27T08:58:04.548Z,24.58
2018-03-27T08:59:07.889Z,26.12
2018-03-27T09:00:11.228Z,23.33
2018-03-27T09:01:14.523Z,24.55
2018-03-27T09:02:17.924Z,25.17
2018-03-27T09:03:21.239Z,24.25
2018-03-27T09:04:24.587Z,23.67
2018-03-27T09:05:27.971Z,23.58
2018-03-27T09:06:31.378Z,24.08
2018-03-27T09:07:34.733Z,23.38
2018-03-27T09:08:38.080Z,23.23
2018-03-27T09:09:41.434Z,22.35
2018-03-27T09:10:44.773Z,21.25
2018-03-27T09:11:48.111Z,22.85
2018-03-27T09:12:51.520Z,19.35
2018-03-27T09:13:54.935Z,18.37
2018-03-27T09:14:58.263Z,17.42
2018-03-27T09:16:01.596Z,18.87
2018-03-27T09:17:04.918Z,19.98
2018-03-27T09:18:08.256Z,19.77
2018-03-27T09:19:11.584Z,21.77
2018-03-27T09:20:14.946Z,20.65
2018-03-27T09:21:18.284Z,20.67
2018-03-27T09:22:21.625Z,20.40
2018-03-27T09:23:24.994Z,20.77
2018-03-27T09:24:28.368Z,19.80
2018-03-27T09:25:31.700Z,19.33
2018-03-27T09:26:35.015Z,21.37
2018-03-27T09:27:38.409Z,19.58
2018-03-27T09:28:41.771Z,21.55
2018-03-27T09:29:45.088Z,22.40
2018-03-27T09:30:49.368Z,23.20
2018-03-27T09:31:52.725Z,20.48
2018-03-27T09:32:56.049Z,21.23
2018-03-27T09:33:59.427Z,21.33
2018-03-27T09:35:02.745Z,21.55
2018-03-27T09:36:06.082Z,21.05
2018-03-27T09:37:09.445Z,19.42
2018-03-27T09:38:12.822Z,19.90
2018-03-27T09:39:16.328Z,19.87
2018-03-27T09:40:19.767Z,20.65
2018-03-27T09:41:23.136Z,20.70
2018-03-27T09:42:26.437Z,20.40
2018-03-27T09:43:29.775Z,20.17
2018-03-27T09:44:33.203Z,20.83
2018-03-27T09:45:36.539Z,21.00
2018-03-27T09:46:40.807Z,20.92
2018-03-27T09:47:44.188Z,21.25
2018-03-27T09:48:47.571Z,19.55
2018-03-27T09:49:50.954Z,21.40
2018-03-27T09:50:54.322Z,20.08
2018-03-27T09:51:57.682Z,18.15
2018-03-27T09:53:01.097Z,20.37
2018-03-27T09:54:04.444Z,19.30
2018-03-27T09:55:07.811Z,21.10
2018-03-27T09:56:11.135Z,19.80
2018-03-27T09:57:14.481Z,20.05
2018-03-27T09:58:17.818Z,20.23
2018-03-27T09:59:21.533Z,20.15
2018-03-27T10:00:30.590Z,19.80
2018-03-27T10:01:40.354Z,19.95
2018-03-27T10:02:43.652Z,21.20
2018-03-27T10:03:46.985Z,19.90
2018-03-27T10:04:50.574Z,18.75
2018-03-27T10:05:53.904Z,17.20
2018-03-27T10:06:57.237Z,18.65
2018-03-27T10:08:00.632Z,17.42
2018-03-27T10:09:04.084Z,19.62
2018-03-27T10:10:07.461Z,19.05
2018-03-27T10:11:10.841Z,19.02
2018-03-27T10:12:14.219Z,17.35
2018-03-27T10:13:17.532Z,16.37
2018-03-27T10:14:20.855Z,16.92
2018-03-27T10:15:24.184Z,18.92
2018-03-27T10:16:27.622Z,16.20
2018-03-27T10:17:31.024Z,15.45
2018-03-27T10:18:34.368Z,15.95
2018-03-27T10:19:37.692Z,16.12
2018-03-27T10:20:41.041Z,17.73
2018-03-27T10:21:44.488Z,16.50
2018-03-27T10:22:47.814Z,18.20
2018-03-27T10:23:51.164Z,18.42
2018-03-27T10:24:54.511Z,16.73
2018-03-27T10:25:57.903Z,17.33
2018-03-27T10:27:01.308Z,18.60
2018-03-27T10:28:04.717Z,17.40
2018-03-27T10:29:08.023Z,17.70
2018-03-27T10:30:11.363Z,21.10
2018-03-27T10:31:15.918Z,18.12
2018-03-27T10:32:19.282Z,18.75
2018-03-27T10:33:22.620Z,19.08
2018-03-27T10:34:26.034Z,18.95
2018-03-27T10:35:29.359Z,19.77
2018-03-27T10:36:32.707Z,19.10
2018-03-27T10:37:36.029Z,20.52
2018-03-27T10:38:39.396Z,18.50
2018-03-27T10:39:42.728Z,18.75
2018-03-27T10:40:46.061Z,19.58
2018-03-27T10:41:49.401Z,19.80
2018-03-27T10:42:52.746Z,20.80
2018-03-27T10:43:56.175Z,16.92
2018-03-27T10:44:59.524Z,19.80
2018-03-27T10:46:02.885Z,18.40
2018-03-27T10:47:06.185Z,18.65
2018-03-27T10:48:09.600Z,18.62
2018-03-27T10:49:12.935Z,22.73
2018-03-27T10:50:16.239Z,18.65
2018-03-27T10:51:19.565Z,17.67
2018-03-27T10:52:22.928Z,17.83
2018-03-27T10:53:26.465Z,18.45
2018-03-27T10:54:29.763Z,16.10
2018-03-27T10:55:33.152Z,16.65
2018-03-27T10:56:36.613Z,14.65
2018-03-27T10:57:39.991Z,16.73
2018-03-27T10:58:43.396Z,15.57
2018-03-27T10:59:46.711Z,15.38
2018-03-27T11:00:50.048Z,16.45
2018-03-27T11:01:53.419Z,15.52
2018-03-27T11:02:56.799Z,13.27
2018-03-27T11:04:00.258Z,13.32
2018-03-27T11:05:03.602Z,12.40
2018-03-27T11:06:06.960Z,13.43
2018-03-27T11:07:10.265Z,13.65
2018-03-27T11:08:13.605Z,12.57
2018-03-27T11:09:16.953Z,13.43
2018-03-27T11:10:20.298Z,12.02
2018-03-27T11:11:23.640Z,15.20
2018-03-27T11:12:27.066Z,17.00
2018-03-27T11:13:30.661Z,13.70
2018-03-27T11:14:34.023Z,12.30
2018-03-27T11:15:37.460Z,13.40
2018-03-27T11:16:40.809Z,12.00
2018-03-27T11:17:44.157Z,12.68
2018-03-27T11:18:47.484Z,13.25
2018-03-27T11:19:50.893Z,12.00
2018-03-27T11:20:54.217Z,13.88
2018-03-27T11:21:58.656Z,12.98
2018-03-27T11:23:02.537Z,13.80
2018-03-27T11:24:05.853Z,13.13
2018-03-27T11:25:09.242Z,13.62
2018-03-27T11:26:12.628Z,14.20
2018-03-27T11:27:16.006Z,13.85
2018-03-27T11:28:19.309Z,15.20
2018-03-27T11:29:22.705Z,13.65
2018-03-27T11:30:26.125Z,14.07
2018-03-27T11:31:29.419Z,13.30
2018-03-27T11:32:32.752Z,13.85
2018-03-27T11:33:36.114Z,14.27
2018-03-27T11:34:39.472Z,13.25
2018-03-27T11:35:42.828Z,13.90
2018-03-27T11:36:46.211Z,14.75
2018-03-27T11:37:49.535Z,12.77
2018-03-27T11:38:52.960Z,13.88
2018-03-27T11:39:56.255Z,12.45
2018-03-27T11:40:59.591Z,13.20
2018-03-27T11:42:02.922Z,12.55
2018-03-27T11:43:06.302Z,12.32
2018-03-27T11:44:09.617Z,13.05
2018-03-27T11:45:12.979Z,13.23
2018-03-27T11:46:16.342Z,11.40
2018-03-27T11:47:19.652Z,12.23
2018-03-27T11:48:23.030Z,12.20
2018-03-27T11:49:26.405Z,12.25
2018-03-27T11:50:29.713Z,11.88
2018-03-27T11:51:33.080Z,12.43
2018-03-27T11:52:36.421Z,11.35
2018-03-27T11:53:39.825Z,13.52
2018-03-27T11:54:43.116Z,12.07
2018-03-27T11:55:46.435Z,12.80
2018-03-27T11:56:49.786Z,13.57
2018-03-27T11:57:53.182Z,12.75
2018-03-27T11:58:56.556Z,11.93
2018-03-27T12:00:00.280Z,12.88
2018-03-27T12:01:03.581Z,12.20
2018-03-27T12:02:06.999Z,12.40
2018-03-27T12:03:10.885Z,12.68
2018-03-27T12:04:14.266Z,11.70
2018-03-27T12:05:17.576Z,14.18
2018-03-27T12:06:20.926Z,14.10
2018-03-27T12:07:24.283Z,12.80
2018-03-27T12:08:27.650Z,12.93
2018-03-27T12:09:30.981Z,14.05
2018-03-27T12:10:34.348Z,12.65
2018-03-27T12:11:37.673Z,13.48
2018-03-27T12:12:41.020Z,13.27
2018-03-27T12:13:44.321Z,14.02
2018-03-27T12:14:47.632Z,13.00
2018-03-27T12:15:50.996Z,13.38
2018-03-27T12:16:54.325Z,13.15
2018-03-27T12:17:57.693Z,14.23
2018-03-27T12:19:01.387Z,13.48
2018-03-27T12:20:04.784Z,13.68
2018-03-27T12:21:08.122Z,15.60
2018-03-27T12:22:11.432Z,14.73
2018-03-27T12:23:14.847Z,14.35
2018-03-27T12:24:18.189Z,15.32
2018-03-27T12:25:21.512Z,13.20
2018-03-27T12:26:24.920Z,14.90
2018-03-27T12:27:28.348Z,16.08
2018-03-27T12:28:31.732Z,15.68
2018-03-27T12:29:35.065Z,15.18
2018-03-27T12:30:38.449Z,14.13
2018-03-27T12:31:43.498Z,15.80
2018-03-27T12:32:46.844Z,14.30
2018-03-27T12:33:50.235Z,16.40
2018-03-27T12:34:53.568Z,15.43
2018-03-27T12:35:56.940Z,15.73
2018-03-27T12:37:00.290Z,14.15
2018-03-27T12:38:03.603Z,14.10
2018-03-27T12:39:07.277Z,14.15
2018-03-27T12:40:11.405Z,15.07
2018-03-27T12:41:14.786Z,15.63
2018-03-27T12:42:18.181Z,13.68
2018-03-27T12:43:21.440Z,14.57
2018-03-27T12:44:24.849Z,14.90
2018-03-27T12:45:28.139Z,15.98
2018-03-27T12:46:31.487Z,15.10
2018-03-27T12:47:34.792Z,15.52
2018-03-27T12:48:38.141Z,15.18
2018-03-27T12:49:41.530Z,15.45
2018-03-27T12:50:45.198Z,15.77
2018-03-27T12:51:48.549Z,16.87
2018-03-27T12:52:51.871Z,14.40
2018-03-27T12:53:55.273Z,16.10
2018-03-27T12:54:58.620Z,15.55
2018-03-27T12:56:02.006Z,16.92
2018-03-27T12:57:05.309Z,15.95
2018-03-27T12:58:08.749Z,16.15
2018-03-27T12:59:12.104Z,15.27
2018-03-27T13:00:15.452Z,15.25
2018-03-27T13:01:18.802Z,15.57
2018-03-27T13:02:22.103Z,14.77
2018-03-27T13:03:25.448Z,15.52
2018-03-27T13:04:28.825Z,15.50
2018-03-27T13:05:32.246Z,16.02
2018-03-27T13:06:35.533Z,16.83
2018-03-27T13:07:38.841Z,15.80
2018-03-27T13:08:42.203Z,17.00
2018-03-27T13:09:45.515Z,15.68
2018-03-27T13:10:48.948Z,16.10
2018-03-27T13:11:52.300Z,16.67
2018-03-27T13:12:55.699Z,16.10
2018-03-27T13:13:58.996Z,15.80
2018-03-27T13:15:02.328Z,17.17
2018-03-27T13:16:05.720Z,15.57
2018-03-27T13:17:09.068Z,16.00
2018-03-27T13:18:12.425Z,15.60
2018-03-27T13:19:15.803Z,16.87
2018-03-27T13:20:19.111Z,16.12
2018-03-27T13:21:22.584Z,16.52
2018-03-27T13:22:25.956Z,16.48
2018-03-27T13:23:29.308Z,15.18
2018-03-27T13:24:32.694Z,15.80
2018-03-27T13:25:36.041Z,16.20
2018-03-27T13:26:39.408Z,16.00
2018-03-27T13:27:42.892Z,15.30
2018-03-27T13:28:46.226Z,17.10
2018-03-27T13:29:49.546Z,15.60
2018-03-27T13:30:52.875Z,17.60
2018-03-27T13:31:57.868Z,17.42
2018-03-27T13:33:01.284Z,17.20
2018-03-27T13:34:04.606Z,16.85
2018-03-27T13:35:07.974Z,18.12
2018-03-27T13:36:11.313Z,18.17
2018-03-27T13:37:14.765Z,18.08
2018-03-27T13:38:18.114Z,18.90
2018-03-27T13:39:21.473Z,17.95
2018-03-27T13:40:24.814Z,18.02
2018-03-27T13:41:28.158Z,17.77